sensor_id;sensor_type;location;lat;lon;timestamp;P1;durP1;ratioP1;P2;durP2;ratioP2
24407;SDS011;12542;50.924;4.516;2023-03-19T00:02:23;7.05;;;2.30;;
24407;SDS011;12542;50.924;4.516;2023-03-19T00:04:49;8.20;;;2.20;;
24407;SDS011;12542;50.924;4.516;2023-03-19T00:07:15;5.13;;;2.15;;
24407;SDS011;12542;50.924;4.516;2023-03-19T00:09:41;5.25;;;1.90;;
24407;SDS011;12542;50.924;4.516;2023-03-19T00:12:08;5.18;;;1.85;;
24407;SDS011;12542;50.924;4.516;2023-03-19T00:14:34;5.20;;;1.98;;
24407;SDS011;12542;50.924;4.516;2023-03-19T00:17:00;3.90;;;1.70;;
24407;SDS011;12542;50.924;4.516;2023-03-19T00:19:26;6.20;;;2.30;;
24407;SDS011;12542;50.924;4.516;2023-03-19T00:21:52;4.45;;;2.08;;
24407;SDS011;12542;50.924;4.516;2023-03-19T00:24:17;6.13;;;2.25;;
24407;SDS011;12542;50.924;4.516;2023-03-19T00:26:44;4.80;;;2.03;;
24407;SDS011;12542;50.924;4.516;2023-03-19T00:29:10;5.60;;;1.75;;
24407;SDS011;12542;50.924;4.516;2023-03-19T00:31:36;3.97;;;2.25;;
24407;SDS011;12542;50.924;4.516;2023-03-19T00:34:03;7.78;;;2.30;;
24407;SDS011;12542;50.924;4.516;2023-03-19T00:36:29;4.22;;;2.70;;
24407;SDS011;12542;50.924;4.516;2023-03-19T00:38:57;4.40;;;2.38;;
24407;SDS011;12542;50.924;4.516;2023-03-19T00:41:23;4.35;;;2.08;;
24407;SDS011;12542;50.924;4.516;2023-03-19T00:43:55;5.95;;;2.45;;
24407;SDS011;12542;50.924;4.516;2023-03-19T00:46:21;6.88;;;2.85;;
24407;SDS011;12542;50.924;4.516;2023-03-19T00:48:48;7.25;;;2.45;;
24407;SDS011;12542;50.924;4.516;2023-03-19T00:51:17;5.57;;;2.53;;
24407;SDS011;12542;50.924;4.516;2023-03-19T00:53:43;4.57;;;2.30;;
24407;SDS011;12542;50.924;4.516;2023-03-19T00:56:10;3.85;;;2.17;;
24407;SDS011;12542;50.924;4.516;2023-03-19T00:58:37;5.63;;;2.40;;
24407;SDS011;12542;50.924;4.516;2023-03-19T01:01:05;5.47;;;2.40;;
24407;SDS011;12542;50.924;4.516;2023-03-19T01:03:35;4.65;;;2.33;;
24407;SDS011;12542;50.924;4.516;2023-03-19T01:06:01;3.80;;;2.17;;
24407;SDS011;12542;50.924;4.516;2023-03-19T01:08:27;5.28;;;2.30;;
24407;SDS011;12542;50.924;4.516;2023-03-19T01:10:53;4.80;;;2.10;;
24407;SDS011;12542;50.924;4.516;2023-03-19T01:13:19;4.47;;;2.42;;
24407;SDS011;12542;50.924;4.516;2023-03-19T01:15:45;4.50;;;2.33;;
24407;SDS011;12542;50.924;4.516;2023-03-19T01:18:13;5.57;;;2.20;;
24407;SDS011;12542;50.924;4.516;2023-03-19T01:20:39;5.07;;;2.55;;
24407;SDS011;12542;50.924;4.516;2023-03-19T01:23:06;4.70;;;2.20;;
24407;SDS011;12542;50.924;4.516;2023-03-19T01:25:33;5.65;;;2.20;;
24407;SDS011;12542;50.924;4.516;2023-03-19T01:27:59;6.15;;;2.40;;
24407;SDS011;12542;50.924;4.516;2023-03-19T01:30:25;3.85;;;2.40;;
24407;SDS011;12542;50.924;4.516;2023-03-19T01:32:51;3.95;;;2.35;;
24407;SDS011;12542;50.924;4.516;2023-03-19T01:35:17;4.43;;;2.60;;
24407;SDS011;12542;50.924;4.516;2023-03-19T01:37:43;6.53;;;2.47;;
24407;SDS011;12542;50.924;4.516;2023-03-19T01:40:13;3.67;;;2.63;;
24407;SDS011;12542;50.924;4.516;2023-03-19T01:48:01;3.63;;;2.15;;
24407;SDS011;12542;50.924;4.516;2023-03-19T01:50:41;4.30;;;2.70;;
24407;SDS011;12542;50.924;4.516;2023-03-19T01:53:10;3.92;;;2.35;;
24407;SDS011;12542;50.924;4.516;2023-03-19T01:55:38;4.00;;;2.72;;
24407;SDS011;12542;50.924;4.516;2023-03-19T01:58:05;5.78;;;2.92;;
24407;SDS011;12542;50.924;4.516;2023-03-19T02:00:32;8.68;;;3.03;;
24407;SDS011;12542;50.924;4.516;2023-03-19T02:03:00;8.63;;;2.83;;
24407;SDS011;12542;50.924;4.516;2023-03-19T02:05:26;7.70;;;3.22;;
24407;SDS011;12542;50.924;4.516;2023-03-19T02:07:53;6.03;;;3.20;;
24407;SDS011;12542;50.924;4.516;2023-03-19T02:10:23;4.78;;;3.22;;
24407;SDS011;12542;50.924;4.516;2023-03-19T02:12:50;5.00;;;3.13;;
24407;SDS011;12542;50.924;4.516;2023-03-19T02:15:16;6.22;;;3.08;;
24407;SDS011;12542;50.924;4.516;2023-03-19T02:17:41;5.55;;;3.50;;
24407;SDS011;12542;50.924;4.516;2023-03-19T02:28:11;7.60;;;4.25;;
24407;SDS011;12542;50.924;4.516;2023-03-19T02:30:40;5.80;;;4.25;;
24407;SDS011;12542;50.924;4.516;2023-03-19T02:33:10;6.93;;;3.88;;
24407;SDS011;12542;50.924;4.516;2023-03-19T02:35:37;8.10;;;4.03;;
24407;SDS011;12542;50.924;4.516;2023-03-19T02:38:04;8.73;;;4.72;;
24407;SDS011;12542;50.924;4.516;2023-03-19T02:40:33;6.68;;;4.30;;
24407;SDS011;12542;50.924;4.516;2023-03-19T02:43:02;7.13;;;5.07;;
24407;SDS011;12542;50.924;4.516;2023-03-19T02:45:28;6.32;;;5.00;;
24407;SDS011;12542;50.924;4.516;2023-03-19T02:47:56;9.90;;;5.10;;
24407;SDS011;12542;50.924;4.516;2023-03-19T02:50:22;7.55;;;5.10;;
24407;SDS011;12542;50.924;4.516;2023-03-19T02:52:47;10.40;;;5.07;;
24407;SDS011;12542;50.924;4.516;2023-03-19T02:55:13;8.82;;;5.80;;
24407;SDS011;12542;50.924;4.516;2023-03-19T02:57:42;8.38;;;5.80;;
24407;SDS011;12542;50.924;4.516;2023-03-19T03:00:08;8.15;;;5.75;;
24407;SDS011;12542;50.924;4.516;2023-03-19T03:02:35;9.70;;;6.70;;
24407;SDS011;12542;50.924;4.516;2023-03-19T03:05:00;8.77;;;5.97;;
24407;SDS011;12542;50.924;4.516;2023-03-19T03:07:26;9.07;;;5.90;;
24407;SDS011;12542;50.924;4.516;2023-03-19T03:09:51;8.40;;;6.00;;
24407;SDS011;12542;50.924;4.516;2023-03-19T03:12:17;10.13;;;6.63;;
24407;SDS011;12542;50.924;4.516;2023-03-19T03:14:43;10.52;;;7.50;;
24407;SDS011;12542;50.924;4.516;2023-03-19T03:17:09;9.07;;;6.60;;
24407;SDS011;12542;50.924;4.516;2023-03-19T03:19:35;10.70;;;7.25;;
24407;SDS011;12542;50.924;4.516;2023-03-19T03:22:01;10.02;;;6.78;;
24407;SDS011;12542;50.924;4.516;2023-03-19T03:24:27;9.73;;;6.22;;
24407;SDS011;12542;50.924;4.516;2023-03-19T03:26:53;10.25;;;6.93;;
24407;SDS011;12542;50.924;4.516;2023-03-19T03:29:18;9.32;;;6.20;;
24407;SDS011;12542;50.924;4.516;2023-03-19T03:31:44;11.15;;;7.20;;
24407;SDS011;12542;50.924;4.516;2023-03-19T03:34:10;9.15;;;7.28;;
24407;SDS011;12542;50.924;4.516;2023-03-19T03:36:36;10.57;;;7.18;;
24407;SDS011;12542;50.924;4.516;2023-03-19T03:39:02;11.07;;;6.80;;
24407;SDS011;12542;50.924;4.516;2023-03-19T03:41:28;8.57;;;6.50;;
24407;SDS011;12542;50.924;4.516;2023-03-19T03:43:54;11.05;;;6.47;;
24407;SDS011;12542;50.924;4.516;2023-03-19T03:46:20;9.93;;;6.80;;
24407;SDS011;12542;50.924;4.516;2023-03-19T03:48:46;9.02;;;7.28;;
24407;SDS011;12542;50.924;4.516;2023-03-19T03:51:14;10.52;;;6.95;;
24407;SDS011;12542;50.924;4.516;2023-03-19T03:53:39;11.48;;;7.97;;
24407;SDS011;12542;50.924;4.516;2023-03-19T03:56:05;12.32;;;8.07;;
24407;SDS011;12542;50.924;4.516;2023-03-19T03:58:31;12.10;;;7.45;;
24407;SDS011;12542;50.924;4.516;2023-03-19T04:00:57;17.35;;;8.90;;
24407;SDS011;12542;50.924;4.516;2023-03-19T04:03:23;10.55;;;8.50;;
24407;SDS011;12542;50.924;4.516;2023-03-19T04:05:49;10.10;;;7.90;;
24407;SDS011;12542;50.924;4.516;2023-03-19T04:08:15;11.85;;;7.95;;
24407;SDS011;12542;50.924;4.516;2023-03-19T04:10:42;14.10;;;7.88;;
24407;SDS011;12542;50.924;4.516;2023-03-19T04:13:08;15.45;;;7.43;;
24407;SDS011;12542;50.924;4.516;2023-03-19T04:15:34;13.07;;;7.65;;
24407;SDS011;12542;50.924;4.516;2023-03-19T04:18:00;9.35;;;7.10;;
24407;SDS011;12542;50.924;4.516;2023-03-19T04:20:27;11.60;;;7.30;;
24407;SDS011;12542;50.924;4.516;2023-03-19T04:22:53;11.63;;;7.78;;
24407;SDS011;12542;50.924;4.516;2023-03-19T04:25:18;10.40;;;7.07;;
24407;SDS011;12542;50.924;4.516;2023-03-19T04:27:44;10.52;;;7.53;;
24407;SDS011;12542;50.924;4.516;2023-03-19T04:30:10;11.02;;;7.45;;
24407;SDS011;12542;50.924;4.516;2023-03-19T04:32:36;14.43;;;7.65;;
24407;SDS011;12542;50.924;4.516;2023-03-19T04:35:05;12.95;;;8.40;;
24407;SDS011;12542;50.924;4.516;2023-03-19T04:37:32;11.80;;;7.85;;
24407;SDS011;12542;50.924;4.516;2023-03-19T04:39:58;15.57;;;8.85;;
24407;SDS011;12542;50.924;4.516;2023-03-19T04:42:24;15.57;;;9.32;;
24407;SDS011;12542;50.924;4.516;2023-03-19T04:44:50;16.83;;;9.80;;
24407;SDS011;12542;50.924;4.516;2023-03-19T04:47:16;17.58;;;9.77;;
24407;SDS011;12542;50.924;4.516;2023-03-19T04:49:42;20.30;;;11.32;;
24407;SDS011;12542;50.924;4.516;2023-03-19T04:52:07;15.50;;;9.90;;
24407;SDS011;12542;50.924;4.516;2023-03-19T04:54:33;18.08;;;9.77;;
24407;SDS011;12542;50.924;4.516;2023-03-19T04:56:59;15.88;;;8.82;;
24407;SDS011;12542;50.924;4.516;2023-03-19T04:59:25;15.73;;;8.77;;
24407;SDS011;12542;50.924;4.516;2023-03-19T05:01:51;16.83;;;7.60;;
24407;SDS011;12542;50.924;4.516;2023-03-19T05:04:17;15.90;;;6.80;;
24407;SDS011;12542;50.924;4.516;2023-03-19T05:06:42;12.95;;;6.95;;
24407;SDS011;12542;50.924;4.516;2023-03-19T05:09:08;19.02;;;6.70;;
24407;SDS011;12542;50.924;4.516;2023-03-19T05:11:34;12.88;;;6.55;;
24407;SDS011;12542;50.924;4.516;2023-03-19T05:14:00;13.48;;;5.97;;
24407;SDS011;12542;50.924;4.516;2023-03-19T05:16:25;11.13;;;6.63;;
24407;SDS011;12542;50.924;4.516;2023-03-19T05:18:51;11.38;;;5.80;;
24407;SDS011;12542;50.924;4.516;2023-03-19T05:21:17;12.30;;;6.13;;
24407;SDS011;12542;50.924;4.516;2023-03-19T05:23:43;15.98;;;7.15;;
24407;SDS011;12542;50.924;4.516;2023-03-19T05:26:09;10.75;;;6.50;;
24407;SDS011;12542;50.924;4.516;2023-03-19T05:28:35;13.75;;;7.15;;
24407;SDS011;12542;50.924;4.516;2023-03-19T05:31:02;12.43;;;7.65;;
24407;SDS011;12542;50.924;4.516;2023-03-19T05:33:28;14.80;;;7.80;;
24407;SDS011;12542;50.924;4.516;2023-03-19T05:35:54;14.23;;;7.75;;
24407;SDS011;12542;50.924;4.516;2023-03-19T05:38:20;15.95;;;8.02;;
24407;SDS011;12542;50.924;4.516;2023-03-19T05:40:46;14.70;;;8.32;;
24407;SDS011;12542;50.924;4.516;2023-03-19T05:43:12;13.82;;;8.32;;
24407;SDS011;12542;50.924;4.516;2023-03-19T05:45:38;14.27;;;8.70;;
24407;SDS011;12542;50.924;4.516;2023-03-19T05:48:04;21.20;;;9.15;;
24407;SDS011;12542;50.924;4.516;2023-03-19T05:50:30;16.48;;;8.75;;
24407;SDS011;12542;50.924;4.516;2023-03-19T05:52:57;19.52;;;9.02;;
24407;SDS011;12542;50.924;4.516;2023-03-19T05:55:25;13.65;;;8.48;;
24407;SDS011;12542;50.924;4.516;2023-03-19T05:57:51;14.55;;;9.25;;
24407;SDS011;12542;50.924;4.516;2023-03-19T06:00:17;15.48;;;9.00;;
24407;SDS011;12542;50.924;4.516;2023-03-19T06:02:43;16.30;;;9.65;;
24407;SDS011;12542;50.924;4.516;2023-03-19T06:05:09;16.75;;;9.70;;
24407;SDS011;12542;50.924;4.516;2023-03-19T06:07:36;12.38;;;7.32;;
24407;SDS011;12542;50.924;4.516;2023-03-19T06:10:02;15.95;;;8.10;;
24407;SDS011;12542;50.924;4.516;2023-03-19T06:12:28;17.35;;;8.25;;
24407;SDS011;12542;50.924;4.516;2023-03-19T06:14:55;16.00;;;8.30;;
24407;SDS011;12542;50.924;4.516;2023-03-19T06:17:21;13.25;;;7.57;;
24407;SDS011;12542;50.924;4.516;2023-03-19T06:19:49;10.07;;;6.55;;
24407;SDS011;12542;50.924;4.516;2023-03-19T06:22:14;17.73;;;6.25;;
24407;SDS011;12542;50.924;4.516;2023-03-19T06:24:40;15.00;;;6.90;;
24407;SDS011;12542;50.924;4.516;2023-03-19T06:27:06;12.73;;;6.53;;
24407;SDS011;12542;50.924;4.516;2023-03-19T06:29:32;12.02;;;6.38;;
24407;SDS011;12542;50.924;4.516;2023-03-19T06:31:57;9.77;;;5.22;;
24407;SDS011;12542;50.924;4.516;2023-03-19T06:34:23;8.23;;;5.18;;
24407;SDS011;12542;50.924;4.516;2023-03-19T06:36:49;9.05;;;4.80;;
24407;SDS011;12542;50.924;4.516;2023-03-19T06:39:17;9.10;;;4.68;;
24407;SDS011;12542;50.924;4.516;2023-03-19T06:41:43;10.13;;;4.72;;
24407;SDS011;12542;50.924;4.516;2023-03-19T06:44:09;7.60;;;4.53;;
24407;SDS011;12542;50.924;4.516;2023-03-19T06:46:35;11.07;;;4.85;;
24407;SDS011;12542;50.924;4.516;2023-03-19T06:49:01;9.77;;;4.00;;
24407;SDS011;12542;50.924;4.516;2023-03-19T06:51:27;6.40;;;3.65;;
24407;SDS011;12542;50.924;4.516;2023-03-19T06:53:53;7.85;;;3.83;;
24407;SDS011;12542;50.924;4.516;2023-03-19T06:56:19;7.80;;;4.57;;
24407;SDS011;12542;50.924;4.516;2023-03-19T06:58:45;8.60;;;4.30;;
24407;SDS011;12542;50.924;4.516;2023-03-19T07:01:10;10.27;;;4.82;;
24407;SDS011;12542;50.924;4.516;2023-03-19T07:03:36;10.30;;;4.72;;
24407;SDS011;12542;50.924;4.516;2023-03-19T07:06:02;11.35;;;4.20;;
24407;SDS011;12542;50.924;4.516;2023-03-19T07:08:28;12.13;;;4.70;;
24407;SDS011;12542;50.924;4.516;2023-03-19T07:10:56;13.18;;;5.30;;
24407;SDS011;12542;50.924;4.516;2023-03-19T07:13:29;11.85;;;5.22;;
24407;SDS011;12542;50.924;4.516;2023-03-19T07:15:58;9.45;;;4.50;;
24407;SDS011;12542;50.924;4.516;2023-03-19T07:18:24;9.45;;;4.47;;
24407;SDS011;12542;50.924;4.516;2023-03-19T07:20:50;12.98;;;4.63;;
24407;SDS011;12542;50.924;4.516;2023-03-19T07:23:17;11.93;;;3.85;;
24407;SDS011;12542;50.924;4.516;2023-03-19T07:25:43;8.55;;;3.50;;
24407;SDS011;12542;50.924;4.516;2023-03-19T07:28:09;7.78;;;3.05;;
24407;SDS011;12542;50.924;4.516;2023-03-19T07:30:35;6.57;;;3.28;;
24407;SDS011;12542;50.924;4.516;2023-03-19T07:33:02;11.43;;;3.50;;
24407;SDS011;12542;50.924;4.516;2023-03-19T07:35:28;12.45;;;2.83;;
24407;SDS011;12542;50.924;4.516;2023-03-19T07:37:54;10.40;;;3.10;;
24407;SDS011;12542;50.924;4.516;2023-03-19T07:40:20;13.50;;;4.35;;
24407;SDS011;12542;50.924;4.516;2023-03-19T07:42:46;6.70;;;2.42;;
24407;SDS011;12542;50.924;4.516;2023-03-19T07:45:12;6.55;;;2.78;;
24407;SDS011;12542;50.924;4.516;2023-03-19T07:47:37;8.65;;;2.83;;
24407;SDS011;12542;50.924;4.516;2023-03-19T07:50:04;6.28;;;2.13;;
24407;SDS011;12542;50.924;4.516;2023-03-19T07:52:30;5.35;;;1.95;;
24407;SDS011;12542;50.924;4.516;2023-03-19T07:54:56;9.15;;;2.60;;
24407;SDS011;12542;50.924;4.516;2023-03-19T07:57:21;9.02;;;2.47;;
24407;SDS011;12542;50.924;4.516;2023-03-19T07:59:49;10.20;;;2.63;;
24407;SDS011;12542;50.924;4.516;2023-03-19T08:02:15;11.48;;;2.70;;
24407;SDS011;12542;50.924;4.516;2023-03-19T08:04:42;7.70;;;2.38;;
24407;SDS011;12542;50.924;4.516;2023-03-19T08:07:08;9.60;;;2.35;;
24407;SDS011;12542;50.924;4.516;2023-03-19T08:09:38;10.10;;;2.83;;
24407;SDS011;12542;50.924;4.516;2023-03-19T08:12:06;11.57;;;2.95;;
24407;SDS011;12542;50.924;4.516;2023-03-19T08:14:33;13.73;;;3.03;;
24407;SDS011;12542;50.924;4.516;2023-03-19T08:16:59;10.80;;;2.72;;
24407;SDS011;12542;50.924;4.516;2023-03-19T08:19:27;10.35;;;2.72;;
24407;SDS011;12542;50.924;4.516;2023-03-19T08:21:52;8.35;;;2.58;;
24407;SDS011;12542;50.924;4.516;2023-03-19T08:24:18;10.23;;;3.47;;
24407;SDS011;12542;50.924;4.516;2023-03-19T08:26:44;12.00;;;2.60;;
24407;SDS011;12542;50.924;4.516;2023-03-19T08:29:10;11.50;;;2.72;;
24407;SDS011;12542;50.924;4.516;2023-03-19T08:31:36;10.57;;;3.22;;
24407;SDS011;12542;50.924;4.516;2023-03-19T08:34:02;12.82;;;3.10;;
24407;SDS011;12542;50.924;4.516;2023-03-19T08:36:28;12.35;;;3.38;;
24407;SDS011;12542;50.924;4.516;2023-03-19T08:38:55;12.50;;;2.65;;
24407;SDS011;12542;50.924;4.516;2023-03-19T08:41:21;10.00;;;2.55;;
24407;SDS011;12542;50.924;4.516;2023-03-19T08:43:47;7.95;;;2.20;;
24407;SDS011;12542;50.924;4.516;2023-03-19T08:46:13;8.30;;;2.25;;
24407;SDS011;12542;50.924;4.516;2023-03-19T08:48:40;8.25;;;2.50;;
24407;SDS011;12542;50.924;4.516;2023-03-19T08:51:06;11.15;;;2.55;;
24407;SDS011;12542;50.924;4.516;2023-03-19T08:53:33;12.38;;;3.13;;
24407;SDS011;12542;50.924;4.516;2023-03-19T08:56:00;10.13;;;2.38;;
24407;SDS011;12542;50.924;4.516;2023-03-19T08:58:28;14.15;;;3.00;;
24407;SDS011;12542;50.924;4.516;2023-03-19T09:01:01;11.45;;;2.75;;
24407;SDS011;12542;50.924;4.516;2023-03-19T09:03:31;8.77;;;2.38;;
24407;SDS011;12542;50.924;4.516;2023-03-19T09:06:00;9.85;;;2.65;;
24407;SDS011;12542;50.924;4.516;2023-03-19T09:08:27;11.57;;;2.35;;
24407;SDS011;12542;50.924;4.516;2023-03-19T09:10:54;9.88;;;3.45;;
24407;SDS011;12542;50.924;4.516;2023-03-19T09:13:23;9.52;;;2.45;;
24407;SDS011;12542;50.924;4.516;2023-03-19T09:15:49;9.18;;;2.50;;
24407;SDS011;12542;50.924;4.516;2023-03-19T09:18:15;8.25;;;2.35;;
24407;SDS011;12542;50.924;4.516;2023-03-19T09:20:41;8.70;;;2.30;;
24407;SDS011;12542;50.924;4.516;2023-03-19T09:23:07;9.13;;;2.60;;
24407;SDS011;12542;50.924;4.516;2023-03-19T09:25:33;12.15;;;2.88;;
24407;SDS011;12542;50.924;4.516;2023-03-19T09:27:59;9.80;;;2.67;;
24407;SDS011;12542;50.924;4.516;2023-03-19T09:30:25;10.63;;;2.08;;
24407;SDS011;12542;50.924;4.516;2023-03-19T09:32:51;11.65;;;3.00;;
24407;SDS011;12542;50.924;4.516;2023-03-19T09:35:17;13.27;;;2.83;;
24407;SDS011;12542;50.924;4.516;2023-03-19T09:37:42;12.20;;;2.75;;
24407;SDS011;12542;50.924;4.516;2023-03-19T09:40:51;10.38;;;2.90;;
24407;SDS011;12542;50.924;4.516;2023-03-19T09:45:41;9.02;;;2.28;;
24407;SDS011;12542;50.924;4.516;2023-03-19T09:48:15;12.07;;;2.05;;
24407;SDS011;12542;50.924;4.516;2023-03-19T09:50:52;7.88;;;2.30;;
24407;SDS011;12542;50.924;4.516;2023-03-19T09:53:23;8.15;;;1.98;;
24407;SDS011;12542;50.924;4.516;2023-03-19T09:56:15;7.25;;;2.45;;
24407;SDS011;12542;50.924;4.516;2023-03-19T09:58:43;17.35;;;3.42;;
24407;SDS011;12542;50.924;4.516;2023-03-19T10:01:32;13.77;;;2.50;;
24407;SDS011;12542;50.924;4.516;2023-03-19T10:04:08;14.93;;;2.97;;
24407;SDS011;12542;50.924;4.516;2023-03-19T10:06:49;11.20;;;2.17;;
24407;SDS011;12542;50.924;4.516;2023-03-19T10:12:08;9.02;;;2.17;;
24407;SDS011;12542;50.924;4.516;2023-03-19T10:17:20;13.43;;;2.85;;
24407;SDS011;12542;50.924;4.516;2023-03-19T10:20:09;7.85;;;2.78;;
24407;SDS011;12542;50.924;4.516;2023-03-19T10:22:49;11.88;;;3.22;;
24407;SDS011;12542;50.924;4.516;2023-03-19T10:25:23;15.45;;;2.58;;
24407;SDS011;12542;50.924;4.516;2023-03-19T10:27:57;15.60;;;3.10;;
24407;SDS011;12542;50.924;4.516;2023-03-19T10:30:29;13.95;;;3.22;;
24407;SDS011;12542;50.924;4.516;2023-03-19T10:33:34;11.90;;;3.22;;
24407;SDS011;12542;50.924;4.516;2023-03-19T10:36:03;10.75;;;2.60;;
24407;SDS011;12542;50.924;4.516;2023-03-19T10:38:37;10.95;;;2.97;;
24407;SDS011;12542;50.924;4.516;2023-03-19T10:44:02;12.20;;;2.95;;
24407;SDS011;12542;50.924;4.516;2023-03-19T10:46:40;12.02;;;3.08;;
24407;SDS011;12542;50.924;4.516;2023-03-19T10:49:12;12.25;;;3.20;;
24407;SDS011;12542;50.924;4.516;2023-03-19T10:51:41;12.85;;;2.40;;
24407;SDS011;12542;50.924;4.516;2023-03-19T10:54:19;10.52;;;3.25;;
24407;SDS011;12542;50.924;4.516;2023-03-19T10:56:50;11.82;;;3.58;;
24407;SDS011;12542;50.924;4.516;2023-03-19T10:59:36;13.73;;;3.33;;
24407;SDS011;12542;50.924;4.516;2023-03-19T11:02:14;12.90;;;3.05;;
24407;SDS011;12542;50.924;4.516;2023-03-19T11:04:40;13.23;;;3.33;;
24407;SDS011;12542;50.924;4.516;2023-03-19T11:07:12;8.65;;;2.83;;
24407;SDS011;12542;50.924;4.516;2023-03-19T11:09:44;8.68;;;2.67;;
24407;SDS011;12542;50.924;4.516;2023-03-19T11:14:45;11.10;;;2.60;;
24407;SDS011;12542;50.924;4.516;2023-03-19T11:22:39;6.78;;;2.65;;
24407;SDS011;12542;50.924;4.516;2023-03-19T11:27:58;10.25;;;2.90;;
24407;SDS011;12542;50.924;4.516;2023-03-19T11:30:34;15.27;;;3.60;;
24407;SDS011;12542;50.924;4.516;2023-03-19T11:38:56;11.57;;;4.22;;
24407;SDS011;12542;50.924;4.516;2023-03-19T11:41:44;11.60;;;3.78;;
24407;SDS011;12542;50.924;4.516;2023-03-19T11:44:28;9.07;;;4.25;;
24407;SDS011;12542;50.924;4.516;2023-03-19T11:57:43;15.35;;;6.65;;
24407;SDS011;12542;50.924;4.516;2023-03-19T12:00:33;16.17;;;7.63;;
24407;SDS011;12542;50.924;4.516;2023-03-19T12:08:52;16.98;;;8.00;;
24407;SDS011;12542;50.924;4.516;2023-03-19T12:11:52;16.75;;;7.28;;
24407;SDS011;12542;50.924;4.516;2023-03-19T12:17:02;17.42;;;7.45;;
24407;SDS011;12542;50.924;4.516;2023-03-19T12:28:11;15.00;;;8.00;;
24407;SDS011;12542;50.924;4.516;2023-03-19T12:30:46;16.97;;;8.00;;
24407;SDS011;12542;50.924;4.516;2023-03-19T12:36:19;16.98;;;7.68;;
24407;SDS011;12542;50.924;4.516;2023-03-19T12:39:00;14.45;;;8.02;;
24407;SDS011;12542;50.924;4.516;2023-03-19T12:41:30;19.42;;;9.07;;
24407;SDS011;12542;50.924;4.516;2023-03-19T12:44:00;13.15;;;8.18;;
24407;SDS011;12542;50.924;4.516;2023-03-19T12:46:32;14.77;;;7.82;;
24407;SDS011;12542;50.924;4.516;2023-03-19T12:51:34;15.63;;;8.35;;
24407;SDS011;12542;50.924;4.516;2023-03-19T12:59:29;13.07;;;6.63;;
24407;SDS011;12542;50.924;4.516;2023-03-19T13:04:52;11.27;;;5.78;;
24407;SDS011;12542;50.924;4.516;2023-03-19T13:10:04;10.48;;;5.28;;
24407;SDS011;12542;50.924;4.516;2023-03-19T13:12:37;9.15;;;5.78;;
24407;SDS011;12542;50.924;4.516;2023-03-19T13:23:45;8.57;;;4.50;;
24407;SDS011;12542;50.924;4.516;2023-03-19T13:26:15;7.70;;;4.45;;
24407;SDS011;12542;50.924;4.516;2023-03-19T13:28:59;8.20;;;4.30;;
24407;SDS011;12542;50.924;4.516;2023-03-19T13:31:25;8.07;;;3.58;;
24407;SDS011;12542;50.924;4.516;2023-03-19T13:36:26;5.75;;;3.45;;
24407;SDS011;12542;50.924;4.516;2023-03-19T13:38:55;7.47;;;3.83;;
24407;SDS011;12542;50.924;4.516;2023-03-19T13:46:46;7.78;;;4.75;;
24407;SDS011;12542;50.924;4.516;2023-03-19T13:57:31;7.97;;;4.97;;
24407;SDS011;12542;50.924;4.516;2023-03-19T13:59:57;8.80;;;5.22;;
24407;SDS011;12542;50.924;4.516;2023-03-19T14:03:05;8.43;;;4.82;;
24407;SDS011;12542;50.924;4.516;2023-03-19T14:05:39;9.05;;;5.18;;
24407;SDS011;12542;50.924;4.516;2023-03-19T14:08:13;9.70;;;5.80;;
24407;SDS011;12542;50.924;4.516;2023-03-19T14:10:48;7.35;;;5.38;;
24407;SDS011;12542;50.924;4.516;2023-03-19T14:16:16;6.75;;;4.05;;
24407;SDS011;12542;50.924;4.516;2023-03-19T14:18:46;7.43;;;4.13;;
24407;SDS011;12542;50.924;4.516;2023-03-19T14:21:20;8.65;;;4.00;;
24407;SDS011;12542;50.924;4.516;2023-03-19T14:27:15;7.35;;;3.90;;
24407;SDS011;12542;50.924;4.516;2023-03-19T14:29:46;7.32;;;4.03;;
24407;SDS011;12542;50.924;4.516;2023-03-19T14:32:17;6.85;;;4.15;;
24407;SDS011;12542;50.924;4.516;2023-03-19T14:45:59;9.25;;;5.90;;
24407;SDS011;12542;50.924;4.516;2023-03-19T14:58:51;7.18;;;4.53;;
24407;SDS011;12542;50.924;4.516;2023-03-19T15:01:19;9.93;;;5.05;;
24407;SDS011;12542;50.924;4.516;2023-03-19T15:03:50;7.57;;;4.78;;
24407;SDS011;12542;50.924;4.516;2023-03-19T15:06:37;6.10;;;3.90;;
24407;SDS011;12542;50.924;4.516;2023-03-19T15:09:15;4.15;;;2.47;;
24407;SDS011;12542;50.924;4.516;2023-03-19T15:14:30;4.35;;;1.90;;
24407;SDS011;12542;50.924;4.516;2023-03-19T15:17:27;3.45;;;1.98;;
24407;SDS011;12542;50.924;4.516;2023-03-19T15:19:54;4.05;;;2.03;;
24407;SDS011;12542;50.924;4.516;2023-03-19T15:22:31;4.80;;;2.22;;
24407;SDS011;12542;50.924;4.516;2023-03-19T15:25:05;3.83;;;2.13;;
24407;SDS011;12542;50.924;4.516;2023-03-19T15:27:33;3.58;;;1.73;;
24407;SDS011;12542;50.924;4.516;2023-03-19T15:30:00;2.65;;;1.73;;
24407;SDS011;12542;50.924;4.516;2023-03-19T15:32:33;6.43;;;2.83;;
24407;SDS011;12542;50.924;4.516;2023-03-19T15:35:02;4.50;;;2.10;;
24407;SDS011;12542;50.924;4.516;2023-03-19T15:37:29;5.03;;;1.92;;
24407;SDS011;12542;50.924;4.516;2023-03-19T15:40:01;4.75;;;1.98;;
24407;SDS011;12542;50.924;4.516;2023-03-19T15:42:30;5.03;;;2.15;;
24407;SDS011;12542;50.924;4.516;2023-03-19T15:45:03;6.00;;;2.85;;
24407;SDS011;12542;50.924;4.516;2023-03-19T15:47:33;4.85;;;2.70;;
24407;SDS011;12542;50.924;4.516;2023-03-19T15:50:11;4.65;;;2.53;;
24407;SDS011;12542;50.924;4.516;2023-03-19T15:52:44;7.00;;;3.00;;
24407;SDS011;12542;50.924;4.516;2023-03-19T15:55:14;3.55;;;2.75;;
24407;SDS011;12542;50.924;4.516;2023-03-19T15:57:41;6.35;;;2.97;;
24407;SDS011;12542;50.924;4.516;2023-03-19T16:00:08;6.20;;;3.55;;
24407;SDS011;12542;50.924;4.516;2023-03-19T16:02:37;7.30;;;3.30;;
24407;SDS011;12542;50.924;4.516;2023-03-19T16:05:05;5.50;;;3.63;;
24407;SDS011;12542;50.924;4.516;2023-03-19T16:10:41;11.80;;;4.15;;
24407;SDS011;12542;50.924;4.516;2023-03-19T16:15:52;8.55;;;3.20;;
24407;SDS011;12542;50.924;4.516;2023-03-19T16:18:21;6.95;;;3.75;;
24407;SDS011;12542;50.924;4.516;2023-03-19T16:21:05;6.32;;;3.30;;
24407;SDS011;12542;50.924;4.516;2023-03-19T16:23:35;9.82;;;4.00;;
24407;SDS011;12542;50.924;4.516;2023-03-19T16:26:11;7.07;;;3.78;;
24407;SDS011;12542;50.924;4.516;2023-03-19T16:28:50;6.43;;;3.63;;
24407;SDS011;12542;50.924;4.516;2023-03-19T16:31:26;8.63;;;4.10;;
24407;SDS011;12542;50.924;4.516;2023-03-19T16:33:56;7.68;;;4.22;;
24407;SDS011;12542;50.924;4.516;2023-03-19T16:36:22;12.57;;;5.22;;
24407;SDS011;12542;50.924;4.516;2023-03-19T16:38:53;11.25;;;4.93;;
24407;SDS011;12542;50.924;4.516;2023-03-19T16:43:53;18.63;;;9.07;;
24407;SDS011;12542;50.924;4.516;2023-03-19T16:46:19;12.82;;;8.93;;
24407;SDS011;12542;50.924;4.516;2023-03-19T16:48:45;13.80;;;9.02;;
24407;SDS011;12542;50.924;4.516;2023-03-19T16:51:14;17.65;;;9.07;;
24407;SDS011;12542;50.924;4.516;2023-03-19T16:53:42;19.17;;;10.27;;
24407;SDS011;12542;50.924;4.516;2023-03-19T16:56:08;14.23;;;8.65;;
24407;SDS011;12542;50.924;4.516;2023-03-19T16:58:38;19.25;;;9.32;;
24407;SDS011;12542;50.924;4.516;2023-03-19T17:01:14;17.25;;;9.35;;
24407;SDS011;12542;50.924;4.516;2023-03-19T17:03:43;19.27;;;8.90;;
24407;SDS011;12542;50.924;4.516;2023-03-19T17:06:10;16.98;;;9.65;;
24407;SDS011;12542;50.924;4.516;2023-03-19T17:08:37;15.52;;;8.55;;
24407;SDS011;12542;50.924;4.516;2023-03-19T17:11:02;18.75;;;8.82;;
24407;SDS011;12542;50.924;4.516;2023-03-19T17:13:29;15.57;;;8.45;;
24407;SDS011;12542;50.924;4.516;2023-03-19T17:15:57;15.60;;;8.18;;
24407;SDS011;12542;50.924;4.516;2023-03-19T17:18:30;11.20;;;7.15;;
24407;SDS011;12542;50.924;4.516;2023-03-19T17:20:59;8.88;;;4.85;;